createdAt,value
2023-03-27T00:00:17.963Z,991.75
2023-03-27T00:01:17.993Z,991.80
2023-03-27T00:02:17.971Z,991.81
2023-03-27T00:03:18.051Z,991.81
2023-03-27T00:04:19.111Z,991.77
2023-03-27T00:05:18.882Z,991.83
2023-03-27T00:06:17.916Z,991.86
2023-03-27T00:07:17.888Z,991.81
2023-03-27T00:08:17.862Z,991.82
2023-03-27T00:09:17.849Z,991.90
2023-03-27T00:10:18.872Z,991.91
2023-03-27T00:11:17.884Z,991.94
2023-03-27T00:12:17.810Z,991.99
2023-03-27T00:13:18.816Z,991.93
2023-03-27T00:14:18.831Z,991.98
2023-03-27T00:15:17.786Z,991.96
2023-03-27T00:16:17.854Z,991.98
2023-03-27T00:17:17.768Z,991.97
2023-03-27T00:18:18.757Z,991.95
2023-03-27T00:19:17.765Z,991.97
2023-03-27T00:20:18.738Z,992.00
2023-03-27T00:21:17.763Z,991.97
2023-03-27T00:22:17.755Z,992.03
2023-03-27T00:23:17.745Z,991.99
2023-03-27T00:24:17.689Z,992.02
2023-03-27T00:25:17.683Z,992.00
2023-03-27T00:26:17.655Z,992.02
2023-03-27T00:27:17.697Z,992.06
2023-03-27T00:28:17.632Z,992.05
2023-03-27T00:29:18.669Z,992.08
2023-03-27T00:30:17.606Z,992.06
2023-03-27T00:31:17.645Z,992.07
2023-03-27T00:32:18.609Z,992.12
2023-03-27T00:33:18.570Z,992.15
2023-03-27T00:34:17.575Z,992.15
2023-03-27T00:35:17.683Z,992.09
2023-03-27T00:36:17.573Z,992.10
2023-03-27T00:37:17.531Z,992.14
2023-03-27T00:38:17.556Z,992.14
2023-03-27T00:39:17.551Z,992.16
2023-03-27T00:40:17.555Z,992.20
2023-03-27T00:41:17.589Z,992.21
2023-03-27T00:42:17.499Z,992.22
2023-03-27T00:43:17.476Z,992.27
2023-03-27T00:44:17.488Z,992.21
2023-03-27T00:45:17.468Z,992.25
2023-03-27T00:46:17.525Z,992.25
2023-03-27T00:47:17.439Z,992.24
2023-03-27T00:48:17.428Z,992.27
2023-03-27T00:49:17.430Z,992.30
2023-03-27T00:50:17.434Z,992.30
2023-03-27T00:51:17.444Z,992.30
2023-03-27T00:52:17.406Z,992.30
2023-03-27T00:53:18.379Z,992.27
2023-03-27T00:54:17.389Z,992.34
2023-03-27T00:55:18.354Z,992.36
2023-03-27T00:56:17.357Z,992.40
2023-03-27T00:57:17.455Z,992.38
2023-03-27T00:58:18.362Z,992.41
2023-03-27T00:59:17.315Z,992.45
2023-03-27T01:00:17.313Z,992.36
2023-03-27T01:01:17.306Z,992.44
2023-03-27T01:02:17.297Z,992.49
2023-03-27T01:03:17.365Z,992.45
2023-03-27T01:04:17.281Z,992.52
2023-03-27T01:05:18.258Z,992.46
2023-03-27T01:06:17.371Z,992.49
2023-03-27T01:07:17.211Z,992.50
2023-03-27T01:08:17.200Z,992.60
2023-03-27T01:09:20.610Z,992.58
2023-03-27T01:10:18.239Z,992.60
2023-03-27T01:11:18.165Z,992.64
2023-03-27T01:12:17.152Z,992.65
2023-03-27T01:13:17.190Z,992.73
2023-03-27T01:14:18.179Z,992.68
2023-03-27T01:15:17.123Z,992.71
2023-03-27T01:16:17.133Z,992.72
2023-03-27T01:17:17.114Z,992.78
2023-03-27T01:18:17.121Z,992.73
2023-03-27T01:19:17.126Z,992.70
2023-03-27T01:20:17.078Z,992.80
2023-03-27T01:21:17.048Z,992.75
2023-03-27T01:22:17.082Z,992.80
2023-03-27T01:23:17.031Z,992.87
2023-03-27T01:24:18.061Z,992.85
2023-03-27T01:25:17.070Z,992.87
2023-03-27T01:26:17.018Z,992.90
2023-03-27T01:27:17.985Z,992.89
2023-03-27T01:28:16.982Z,992.92
2023-03-27T01:29:17.004Z,993.02
2023-03-27T01:30:16.971Z,992.94
2023-03-27T01:31:17.061Z,993.00
2023-03-27T01:32:16.979Z,993.02
2023-03-27T01:33:16.917Z,993.05
2023-03-27T01:34:17.926Z,993.20
2023-03-27T01:35:16.961Z,993.18
2023-03-27T01:36:16.930Z,993.10
2023-03-27T01:37:16.895Z,993.10
2023-03-27T01:38:16.908Z,993.17
2023-03-27T01:39:16.851Z,993.14
2023-03-27T01:40:16.921Z,993.21
2023-03-27T01:41:16.864Z,993.30
2023-03-27T01:42:17.908Z,993.27
2023-03-27T01:43:16.838Z,993.32
2023-03-27T01:44:16.844Z,993.30
2023-03-27T01:45:16.814Z,993.34
2023-03-27T01:46:16.862Z,993.40
2023-03-27T01:47:16.769Z,993.41
2023-03-27T01:48:16.778Z,993.39
2023-03-27T01:49:16.779Z,993.36
2023-03-27T01:50:16.773Z,993.44
2023-03-27T01:51:16.716Z,993.54
2023-03-27T01:52:16.777Z,993.57
2023-03-27T01:53:16.713Z,993.47
2023-03-27T01:54:16.731Z,993.46
2023-03-27T01:55:16.707Z,993.47
2023-03-27T01:56:17.732Z,993.51
2023-03-27T01:57:16.703Z,993.57
2023-03-27T01:58:16.657Z,993.60
2023-03-27T01:59:16.650Z,993.58
2023-03-27T02:00:17.917Z,993.64
2023-03-27T02:01:16.674Z,993.66
2023-03-27T02:02:16.653Z,993.58
2023-03-27T02:03:16.590Z,993.65
2023-03-27T02:04:16.632Z,993.72
2023-03-27T02:05:16.631Z,993.74
2023-03-27T02:06:16.588Z,993.75
2023-03-27T02:07:16.596Z,993.76
2023-03-27T02:08:16.615Z,993.79
2023-03-27T02:09:16.545Z,993.81
2023-03-27T02:10:16.536Z,993.78
2023-03-27T02:11:16.517Z,993.82
2023-03-27T02:12:17.485Z,993.81
2023-03-27T02:13:16.479Z,993.87
2023-03-27T02:14:16.543Z,993.91
2023-03-27T02:15:23.100Z,993.91
2023-03-27T02:16:17.555Z,993.87
2023-03-27T02:17:16.475Z,993.98
2023-03-27T02:18:16.477Z,994.00
2023-03-27T02:19:16.455Z,993.99
2023-03-27T02:20:16.470Z,993.97
2023-03-27T02:21:16.415Z,994.01
2023-03-27T02:22:16.388Z,994.02
2023-03-27T02:23:17.444Z,993.99
2023-03-27T02:24:16.409Z,994.00
2023-03-27T02:25:16.348Z,994.03
2023-03-27T02:26:16.374Z,993.99
2023-03-27T02:27:16.410Z,994.04
2023-03-27T02:28:16.324Z,993.99
2023-03-27T02:29:16.367Z,994.02
2023-03-27T02:30:16.336Z,994.05
2023-03-27T02:31:32.522Z,994.04
2023-03-27T02:32:17.310Z,993.99
2023-03-27T02:33:17.334Z,994.00
2023-03-27T02:34:16.263Z,994.00
2023-03-27T02:35:16.306Z,994.12
2023-03-27T02:36:16.247Z,994.12
2023-03-27T02:37:16.334Z,994.16
2023-03-27T02:38:16.223Z,994.23
2023-03-27T02:39:16.232Z,994.25
2023-03-27T02:40:17.285Z,994.37
2023-03-27T02:41:16.211Z,994.36
2023-03-27T02:42:16.223Z,994.43
2023-03-27T02:43:16.231Z,994.47
2023-03-27T02:44:16.151Z,994.43
2023-03-27T02:45:16.156Z,994.46
2023-03-27T02:46:16.225Z,994.51
2023-03-27T02:47:17.124Z,994.54
2023-03-27T02:48:16.186Z,994.51
2023-03-27T02:49:16.114Z,994.62
2023-03-27T02:50:17.088Z,994.58
2023-03-27T02:51:16.168Z,994.68
2023-03-27T02:52:16.086Z,994.63
2023-03-27T02:53:17.062Z,994.68
2023-03-27T02:54:16.085Z,994.71
2023-03-27T02:55:16.079Z,994.79
2023-03-27T02:56:16.079Z,994.78
2023-03-27T02:57:16.031Z,994.80
2023-03-27T02:58:16.028Z,994.84
2023-03-27T02:59:16.006Z,994.90
2023-03-27T03:00:16.027Z,994.81
2023-03-27T03:01:16.003Z,994.80
2023-03-27T03:02:16.061Z,994.92
2023-03-27T03:03:16.006Z,994.87
2023-03-27T03:04:16.933Z,995.02
2023-03-27T03:05:15.954Z,994.99
2023-03-27T03:06:16.934Z,994.97
2023-03-27T03:07:15.912Z,995.04
2023-03-27T03:08:15.922Z,995.02
2023-03-27T03:09:16.898Z,994.98
2023-03-27T03:10:15.881Z,995.05
2023-03-27T03:11:15.945Z,995.13
2023-03-27T03:12:15.854Z,995.05
2023-03-27T03:13:16.843Z,995.03
2023-03-27T03:14:15.861Z,995.08
2023-03-27T03:15:15.808Z,995.04
2023-03-27T03:16:15.861Z,995.15
2023-03-27T03:17:15.836Z,995.11
2023-03-27T03:18:15.778Z,995.12
2023-03-27T03:19:16.798Z,995.14
2023-03-27T03:20:16.800Z,995.16
2023-03-27T03:21:16.789Z,995.17
2023-03-27T03:22:15.754Z,995.27
2023-03-27T03:23:15.798Z,995.24
2023-03-27T03:24:15.724Z,995.25
2023-03-27T03:25:15.716Z,995.26
2023-03-27T03:26:15.723Z,995.23
2023-03-27T03:27:15.746Z,995.26
2023-03-27T03:28:15.694Z,995.29
2023-03-27T03:29:15.700Z,995.36
2023-03-27T03:30:16.533Z,995.34
2023-03-27T03:31:15.719Z,995.39
2023-03-27T03:32:15.660Z,995.44
2023-03-27T03:33:16.642Z,995.36
2023-03-27T03:34:15.632Z,995.41
2023-03-27T03:35:16.654Z,995.42
2023-03-27T03:36:16.609Z,995.46
2023-03-27T03:37:15.649Z,995.48
2023-03-27T03:38:15.563Z,995.44
2023-03-27T03:39:15.553Z,995.45
2023-03-27T03:40:15.592Z,995.47
2023-03-27T03:41:15.594Z,995.48
2023-03-27T03:42:22.895Z,995.55
2023-03-27T03:43:16.509Z,995.54
2023-03-27T03:44:15.495Z,995.55
2023-03-27T03:45:16.545Z,995.60
2023-03-27T03:46:15.547Z,995.63
2023-03-27T03:47:15.472Z,995.60
2023-03-27T03:48:15.482Z,995.67
2023-03-27T03:49:15.477Z,995.66
2023-03-27T03:50:15.433Z,995.66
2023-03-27T03:51:15.482Z,995.76
2023-03-27T03:52:15.433Z,995.82
2023-03-27T03:53:15.431Z,995.80
2023-03-27T03:54:16.390Z,995.86
2023-03-27T03:55:15.421Z,995.90
2023-03-27T03:56:15.429Z,995.92
2023-03-27T03:57:15.596Z,995.88
2023-03-27T03:58:15.498Z,995.91
2023-03-27T03:59:15.348Z,995.96
2023-03-27T04:00:15.340Z,995.97
2023-03-27T04:01:15.325Z,996.05
2023-03-27T04:02:15.460Z,996.02
2023-03-27T04:03:15.421Z,996.01
2023-03-27T04:04:15.453Z,996.07
2023-03-27T04:05:15.265Z,996.15
2023-03-27T04:06:15.260Z,996.18
2023-03-27T04:07:16.288Z,996.18
2023-03-27T04:08:16.255Z,996.19
2023-03-27T04:09:15.229Z,996.21
2023-03-27T04:10:16.240Z,996.24
2023-03-27T04:11:15.207Z,996.32
2023-03-27T04:12:15.217Z,996.44
2023-03-27T04:13:15.169Z,996.39
2023-03-27T04:14:15.173Z,996.37
2023-03-27T04:15:15.193Z,996.35
2023-03-27T04:16:16.204Z,996.37
2023-03-27T04:17:15.145Z,996.41
2023-03-27T04:18:15.356Z,996.47
2023-03-27T04:19:15.120Z,996.44
2023-03-27T04:20:15.142Z,996.56
2023-03-27T04:21:16.094Z,996.53
2023-03-27T04:22:15.124Z,996.54
2023-03-27T04:23:15.089Z,996.57
2023-03-27T04:24:15.102Z,996.61
2023-03-27T04:25:15.093Z,996.64
2023-03-27T04:26:15.118Z,996.71
2023-03-27T04:27:15.021Z,996.74
2023-03-27T04:28:15.003Z,996.77
2023-03-27T04:29:16.055Z,996.77
2023-03-27T04:30:15.047Z,996.74
2023-03-27T04:31:15.000Z,996.81
2023-03-27T04:32:14.975Z,996.83
2023-03-27T04:33:14.963Z,996.81
2023-03-27T04:34:15.993Z,996.87
2023-03-27T04:35:14.948Z,996.84
2023-03-27T04:36:15.048Z,996.81
2023-03-27T04:37:15.943Z,996.87
2023-03-27T04:38:15.022Z,996.90
2023-03-27T04:39:14.910Z,996.88
2023-03-27T04:40:15.942Z,996.99
2023-03-27T04:41:14.884Z,996.99
2023-03-27T04:42:14.898Z,996.98
2023-03-27T04:43:14.867Z,997.07
2023-03-27T04:44:14.882Z,997.11
2023-03-27T04:45:14.825Z,997.08
2023-03-27T04:46:14.919Z,997.14
2023-03-27T04:47:14.906Z,997.19
2023-03-27T04:48:14.805Z,997.18
2023-03-27T04:49:15.925Z,997.20
2023-03-27T04:50:14.792Z,997.26
2023-03-27T04:51:14.827Z,997.27
2023-03-27T04:52:14.763Z,997.25
2023-03-27T04:53:14.761Z,997.28
2023-03-27T04:54:14.735Z,997.28
2023-03-27T04:55:14.751Z,997.32
2023-03-27T04:56:15.721Z,997.31
2023-03-27T04:57:15.801Z,997.37
2023-03-27T04:58:15.694Z,997.35
2023-03-27T04:59:14.689Z,997.38
2023-03-27T05:00:14.681Z,997.36
2023-03-27T05:01:14.744Z,997.41
2023-03-27T05:02:15.652Z,997.34
2023-03-27T05:03:15.771Z,997.43
2023-03-27T05:04:14.624Z,997.45
2023-03-27T05:05:14.662Z,997.54
2023-03-27T05:06:14.624Z,997.57
2023-03-27T05:07:14.628Z,997.52
2023-03-27T05:08:14.582Z,997.60
2023-03-27T05:09:14.565Z,997.58
2023-03-27T05:10:15.554Z,997.62
2023-03-27T05:11:14.601Z,997.64
2023-03-27T05:12:14.557Z,997.76
2023-03-27T05:13:14.535Z,997.71
2023-03-27T05:14:14.513Z,997.78
2023-03-27T05:15:14.515Z,997.80
2023-03-27T05:16:15.556Z,997.79
2023-03-27T05:17:14.522Z,997.78
2023-03-27T05:18:14.466Z,997.84
2023-03-27T05:19:15.455Z,997.92
2023-03-27T05:20:15.449Z,997.92
2023-03-27T05:21:14.435Z,997.97
2023-03-27T05:22:15.457Z,997.94
2023-03-27T05:23:14.412Z,997.99
2023-03-27T05:24:15.444Z,997.97
2023-03-27T05:25:15.374Z,998.05
2023-03-27T05:26:15.400Z,998.07
2023-03-27T05:27:14.394Z,998.03
2023-03-27T05:28:14.389Z,998.09
2023-03-27T05:29:14.357Z,998.17
2023-03-27T05:30:14.338Z,998.22
2023-03-27T05:31:15.387Z,998.25
2023-03-27T05:32:14.324Z,998.27
2023-03-27T05:33:14.339Z,998.29
2023-03-27T05:34:14.334Z,998.33
2023-03-27T05:35:14.288Z,998.37
2023-03-27T05:36:15.276Z,998.40
2023-03-27T05:37:14.262Z,998.37
2023-03-27T05:38:15.241Z,998.49
2023-03-27T05:39:14.234Z,998.46
2023-03-27T05:40:14.261Z,998.54
2023-03-27T05:41:14.216Z,998.51
2023-03-27T05:42:14.224Z,998.53
2023-03-27T05:43:15.211Z,998.58
2023-03-27T05:44:14.237Z,998.53
2023-03-27T05:45:14.227Z,998.63
2023-03-27T05:46:14.183Z,998.61
2023-03-27T05:47:15.123Z,998.65
2023-03-27T05:48:15.110Z,998.60
2023-03-27T05:49:14.129Z,998.65
2023-03-27T05:50:14.130Z,998.69
2023-03-27T05:51:14.141Z,998.70
2023-03-27T05:52:14.127Z,998.72
2023-03-27T05:53:14.093Z,998.76
2023-03-27T05:54:15.079Z,998.70
2023-03-27T05:55:14.068Z,998.76
2023-03-27T05:56:14.050Z,998.73
2023-03-27T05:57:14.110Z,998.72
2023-03-27T05:58:14.038Z,998.75
2023-03-27T05:59:13.989Z,998.72
2023-03-27T06:00:14.073Z,998.72
2023-03-27T06:01:13.980Z,998.77
2023-03-27T06:02:14.014Z,998.82
2023-03-27T06:03:14.179Z,998.75
2023-03-27T06:04:13.995Z,998.79
2023-03-27T06:05:14.929Z,998.79
2023-03-27T06:06:14.924Z,998.86
2023-03-27T06:07:13.919Z,998.82
2023-03-27T06:08:14.969Z,998.89
2023-03-27T06:09:13.895Z,998.92
2023-03-27T06:10:14.402Z,998.96
2023-03-27T06:11:13.896Z,998.97
2023-03-27T06:12:13.861Z,998.99
2023-03-27T06:13:13.894Z,999.05
2023-03-27T06:14:13.918Z,998.97
2023-03-27T06:15:13.838Z,999.02
2023-03-27T06:16:13.886Z,999.07
2023-03-27T06:17:13.843Z,999.09
2023-03-27T06:18:13.814Z,999.13
2023-03-27T06:19:13.845Z,999.07
2023-03-27T06:20:14.793Z,999.12
2023-03-27T06:21:13.782Z,999.13
2023-03-27T06:22:14.791Z,999.14
2023-03-27T06:23:14.825Z,999.20
2023-03-27T06:24:13.801Z,999.25
2023-03-27T06:25:13.798Z,999.19
2023-03-27T06:26:14.849Z,999.26
2023-03-27T06:27:13.708Z,999.24
2023-03-27T06:28:13.704Z,999.22
2023-03-27T06:29:13.679Z,999.30
2023-03-27T06:30:13.751Z,999.21
2023-03-27T06:31:14.765Z,999.25
2023-03-27T06:32:13.667Z,999.24
2023-03-27T06:33:14.080Z,999.32
2023-03-27T06:34:13.618Z,999.28
2023-03-27T06:35:14.743Z,999.37
2023-03-27T06:36:14.643Z,999.34
2023-03-27T06:37:13.621Z,999.30
2023-03-27T06:38:14.599Z,999.42
2023-03-27T06:39:13.624Z,999.42
2023-03-27T06:40:13.583Z,999.42
2023-03-27T06:41:14.579Z,999.44
2023-03-27T06:42:13.643Z,999.49
2023-03-27T06:43:13.522Z,999.41
2023-03-27T06:44:14.502Z,999.52
2023-03-27T06:45:13.513Z,999.55
2023-03-27T06:46:13.570Z,999.49
2023-03-27T06:47:14.541Z,999.51
2023-03-27T06:48:20.579Z,999.55
2023-03-27T06:49:14.555Z,999.46
2023-03-27T06:50:13.467Z,999.48
2023-03-27T06:51:13.677Z,999.55
2023-03-27T06:52:13.447Z,999.52
2023-03-27T06:53:25.966Z,999.45
2023-03-27T06:54:14.414Z,999.45
2023-03-27T06:55:14.940Z,999.48
2023-03-27T06:56:13.404Z,999.52
2023-03-27T06:57:13.437Z,999.55
2023-03-27T06:58:13.373Z,999.52
2023-03-27T06:59:13.360Z,999.56
2023-03-27T07:00:13.364Z,999.56
2023-03-27T07:01:13.358Z,999.56
2023-03-27T07:02:13.353Z,999.65
2023-03-27T07:03:13.351Z,999.62
2023-03-27T07:04:21.057Z,999.60
2023-03-27T07:05:13.317Z,999.70
2023-03-27T07:06:13.276Z,999.69
2023-03-27T07:07:13.293Z,999.70
2023-03-27T07:08:21.612Z,999.71
2023-03-27T07:09:14.340Z,999.71
2023-03-27T07:10:13.243Z,999.68
2023-03-27T07:11:13.348Z,999.65
2023-03-27T07:12:14.233Z,999.73
2023-03-27T07:13:13.246Z,999.68
2023-03-27T07:14:13.183Z,999.63
2023-03-27T07:15:13.164Z,999.77
2023-03-27T07:16:13.196Z,999.82
2023-03-27T07:17:13.168Z,999.83
2023-03-27T07:18:13.243Z,999.80
2023-03-27T07:19:14.045Z,999.82
2023-03-27T07:20:13.326Z,999.78
2023-03-27T07:21:14.103Z,999.82
2023-03-27T07:22:13.083Z,999.81
2023-03-27T07:23:13.104Z,999.84
2023-03-27T07:24:13.066Z,999.75
2023-03-27T07:25:13.082Z,999.73
2023-03-27T07:26:13.348Z,999.76
2023-03-27T07:27:13.038Z,999.79
2023-03-27T07:28:13.028Z,999.85
2023-03-27T07:29:14.027Z,999.84
2023-03-27T07:30:13.015Z,999.78
2023-03-27T07:31:25.985Z,999.84
2023-03-27T07:32:17.232Z,999.84
2023-03-27T07:33:14.039Z,999.88
2023-03-27T07:34:13.072Z,999.84
2023-03-27T07:35:12.946Z,999.90
2023-03-27T07:36:12.931Z,999.87
2023-03-27T07:37:12.956Z,999.86
2023-03-27T07:38:12.977Z,999.88
2023-03-27T07:39:12.914Z,999.91
2023-03-27T07:40:12.897Z,999.86
2023-03-27T07:41:12.905Z,999.89
2023-03-27T07:42:13.888Z,999.96
2023-03-27T07:43:13.843Z,999.94
2023-03-27T07:44:12.856Z,999.88
2023-03-27T07:45:12.825Z,999.97
2023-03-27T07:46:12.873Z,999.90
2023-03-27T07:47:12.852Z,999.98
2023-03-27T07:48:13.829Z,999.90
2023-03-27T07:49:12.806Z,999.91
2023-03-27T07:50:12.800Z,999.92
2023-03-27T07:51:14.479Z,999.96
2023-03-27T07:52:14.702Z,999.97
2023-03-27T07:53:32.902Z,999.95
2023-03-27T07:54:13.769Z,999.94
2023-03-27T07:55:12.722Z,999.95
2023-03-27T07:56:12.716Z,1000.02
2023-03-27T07:57:12.823Z,999.94
2023-03-27T07:58:12.796Z,1000.00
2023-03-27T07:59:12.725Z,999.96
2023-03-27T08:00:12.693Z,1000.00
2023-03-27T08:01:12.693Z,1000.00
2023-03-27T08:02:13.691Z,999.95
2023-03-27T08:03:12.797Z,1000.00
2023-03-27T08:04:13.821Z,1000.06
2023-03-27T08:05:12.712Z,999.98
2023-03-27T08:06:12.631Z,999.99
2023-03-27T08:07:12.643Z,1000.11
2023-03-27T08:08:12.589Z,1000.08
2023-03-27T08:09:12.605Z,1000.09
2023-03-27T08:10:12.650Z,999.99
2023-03-27T08:11:22.966Z,1000.06
2023-03-27T08:12:13.551Z,999.99
2023-03-27T08:13:12.575Z,1000.05
2023-03-27T08:14:12.538Z,1000.08
2023-03-27T08:15:12.512Z,1000.08
2023-03-27T08:16:12.546Z,1000.15
2023-03-27T08:17:16.330Z,1000.12
2023-03-27T08:18:12.568Z,1000.14
2023-03-27T08:19:12.464Z,1000.21
2023-03-27T08:20:12.473Z,1000.21
2023-03-27T08:21:12.437Z,1000.14
2023-03-27T08:22:12.419Z,1000.17
2023-03-27T08:23:12.438Z,1000.19
2023-03-27T08:24:12.418Z,1000.23
2023-03-27T08:25:12.393Z,1000.20
2023-03-27T08:26:12.428Z,1000.25
2023-03-27T08:27:12.402Z,1000.22
2023-03-27T08:28:12.485Z,1000.25
2023-03-27T08:29:13.383Z,1000.24
2023-03-27T08:30:12.344Z,1000.29
2023-03-27T08:31:12.387Z,1000.31
2023-03-27T08:32:12.340Z,1000.29
2023-03-27T08:33:12.344Z,1000.33
2023-03-27T08:34:12.311Z,1000.33
2023-03-27T08:35:12.523Z,1000.46
2023-03-27T08:36:12.402Z,1000.32
2023-03-27T08:37:12.269Z,1000.34
2023-03-27T08:38:25.806Z,1000.46
2023-03-27T08:39:13.254Z,1000.46
2023-03-27T08:40:12.257Z,1000.45
2023-03-27T08:41:13.260Z,1000.45
2023-03-27T08:42:12.221Z,1000.48
2023-03-27T08:43:12.274Z,1000.36
2023-03-27T08:44:12.211Z,1000.39
2023-03-27T08:45:12.166Z,1000.38
2023-03-27T08:46:12.204Z,1000.40
2023-03-27T08:47:12.215Z,1000.44
2023-03-27T08:48:13.151Z,1000.37
2023-03-27T08:49:12.128Z,1000.41
2023-03-27T08:50:12.165Z,1000.42
2023-03-27T08:51:12.990Z,1000.44
2023-03-27T08:52:12.102Z,1000.42
2023-03-27T08:53:13.143Z,1000.40
2023-03-27T08:54:12.092Z,1000.46
2023-03-27T08:55:12.073Z,1000.43
2023-03-27T08:56:12.074Z,1000.44
2023-03-27T08:57:12.094Z,1000.47
2023-03-27T08:58:12.050Z,1000.42
2023-03-27T08:59:12.068Z,1000.50
2023-03-27T09:00:12.026Z,1000.44
2023-03-27T09:01:12.032Z,1000.48
2023-03-27T09:02:12.033Z,1000.43
2023-03-27T09:03:13.081Z,1000.54
2023-03-27T09:04:11.995Z,1000.50
2023-03-27T09:05:11.969Z,1000.48
2023-03-27T09:06:12.983Z,1000.53
2023-03-27T09:07:11.932Z,1000.50
2023-03-27T09:08:11.941Z,1000.52
2023-03-27T09:09:11.931Z,1000.50
2023-03-27T09:10:12.944Z,1000.47
2023-03-27T09:11:11.930Z,1000.42
2023-03-27T09:12:11.876Z,1000.60
2023-03-27T09:13:11.903Z,1000.47
2023-03-27T09:14:11.862Z,1000.53
2023-03-27T09:15:11.874Z,1000.48
2023-03-27T09:16:12.914Z,1000.60
2023-03-27T09:17:11.877Z,1000.63
2023-03-27T09:18:11.817Z,1000.69
2023-03-27T09:19:11.791Z,1000.67
2023-03-27T09:20:11.783Z,1000.65
2023-03-27T09:21:11.783Z,1000.63
2023-03-27T09:22:12.827Z,1000.59
2023-03-27T09:23:11.754Z,1000.63
2023-03-27T09:24:12.753Z,1000.64
2023-03-27T09:25:11.729Z,1000.70
2023-03-27T09:26:11.722Z,1000.60
2023-03-27T09:27:11.765Z,1000.61
2023-03-27T09:28:11.706Z,1000.81
2023-03-27T09:29:12.722Z,1000.73
2023-03-27T09:30:12.687Z,1000.74
2023-03-27T09:31:11.724Z,1000.73
2023-03-27T09:32:11.700Z,1000.73
2023-03-27T09:33:11.719Z,1000.75
2023-03-27T09:34:11.639Z,1000.74
2023-03-27T09:35:11.665Z,1000.73
2023-03-27T09:36:11.662Z,1000.76
2023-03-27T09:37:11.612Z,1000.80
2023-03-27T09:38:11.638Z,1000.75
2023-03-27T09:39:11.600Z,1000.85
2023-03-27T09:40:11.611Z,1000.85
2023-03-27T09:41:11.554Z,1000.84
2023-03-27T09:42:11.561Z,1000.90
2023-03-27T09:43:11.590Z,1000.92
2023-03-27T09:44:12.525Z,1000.89
2023-03-27T09:45:11.544Z,1000.88
2023-03-27T09:46:11.507Z,1000.80
2023-03-27T09:47:11.489Z,1000.94
2023-03-27T09:48:11.470Z,1001.02
2023-03-27T09:49:11.502Z,1000.91
2023-03-27T09:50:12.453Z,1001.02
2023-03-27T09:51:11.450Z,1001.04
2023-03-27T09:52:11.446Z,1001.04
2023-03-27T09:53:11.444Z,1000.98
2023-03-27T09:54:11.447Z,1000.99
2023-03-27T09:55:11.444Z,1000.94
2023-03-27T09:56:11.378Z,1000.94
2023-03-27T09:57:11.431Z,1000.96
2023-03-27T09:58:12.452Z,1001.10
2023-03-27T09:59:11.371Z,1001.15
2023-03-27T10:00:12.342Z,1001.07
2023-03-27T10:01:12.410Z,1001.05
2023-03-27T10:02:11.370Z,1000.98
2023-03-27T10:03:11.391Z,1001.01
2023-03-27T10:04:11.332Z,1000.98
2023-03-27T10:05:11.321Z,1001.02
2023-03-27T10:06:12.276Z,1000.97
2023-03-27T10:07:11.280Z,1000.86
2023-03-27T10:08:11.248Z,1001.01
2023-03-27T10:09:11.269Z,1000.99
2023-03-27T10:10:11.246Z,1000.97
2023-03-27T10:11:11.231Z,1000.95
2023-03-27T10:12:11.241Z,1000.92
2023-03-27T10:13:11.242Z,1000.96
2023-03-27T10:14:12.246Z,1000.94
2023-03-27T10:15:11.222Z,1000.96
2023-03-27T10:16:11.203Z,1000.96
2023-03-27T10:17:12.171Z,1001.00
2023-03-27T10:18:11.172Z,1001.00
2023-03-27T10:19:11.183Z,1001.01
2023-03-27T10:20:11.148Z,1001.08
2023-03-27T10:21:11.139Z,1001.10
2023-03-27T10:22:14.413Z,1001.12
2023-03-27T10:23:11.122Z,1001.14
2023-03-27T10:24:11.123Z,1001.09
2023-03-27T10:25:11.089Z,1001.10
2023-03-27T10:26:12.079Z,1001.22
2023-03-27T10:27:11.062Z,1001.21
2023-03-27T10:28:11.081Z,1001.15
2023-03-27T10:29:11.031Z,1001.14
2023-03-27T10:30:11.057Z,1001.18
2023-03-27T10:31:11.023Z,1001.22
2023-03-27T10:32:11.152Z,1001.18
2023-03-27T10:33:11.066Z,1001.28
2023-03-27T10:34:12.010Z,1001.42
2023-03-27T10:35:12.038Z,1001.45
2023-03-27T10:36:11.007Z,1001.44
2023-03-27T10:37:10.964Z,1001.47
2023-03-27T10:38:10.948Z,1001.46
2023-03-27T10:39:10.936Z,1001.38
2023-03-27T10:40:10.924Z,1001.33
2023-03-27T10:41:10.934Z,1001.34
2023-03-27T10:42:10.928Z,1001.43
2023-03-27T10:43:12.642Z,1001.33
2023-03-27T10:44:10.855Z,1001.29
2023-03-27T10:45:10.842Z,1001.36
2023-03-27T10:46:11.003Z,1001.35
2023-03-27T10:47:10.846Z,1001.33
2023-03-27T10:48:10.864Z,1001.30
2023-03-27T10:49:11.821Z,1001.27
2023-03-27T10:50:10.807Z,1001.20
2023-03-27T10:51:10.830Z,1001.19
2023-03-27T10:52:10.802Z,1001.18
2023-03-27T10:53:10.842Z,1001.18
2023-03-27T10:54:11.833Z,1001.17
2023-03-27T10:55:10.784Z,1001.19
2023-03-27T10:56:10.743Z,1001.33
2023-03-27T10:57:10.780Z,1001.31
2023-03-27T10:58:10.745Z,1001.28
2023-03-27T10:59:10.741Z,1001.29
2023-03-27T11:00:10.740Z,1001.42
2023-03-27T11:01:10.733Z,1001.34
2023-03-27T11:02:10.694Z,1001.32
2023-03-27T11:03:10.813Z,1001.27
2023-03-27T11:04:11.739Z,1001.28
2023-03-27T11:05:10.659Z,1001.40
2023-03-27T11:06:11.702Z,1001.31
2023-03-27T11:07:10.642Z,1001.37
2023-03-27T11:08:10.616Z,1001.40
2023-03-27T11:09:10.613Z,1001.41
2023-03-27T11:10:10.582Z,1001.34
2023-03-27T11:11:10.584Z,1001.40
2023-03-27T11:12:10.605Z,1001.48
2023-03-27T11:13:10.553Z,1001.49
2023-03-27T11:14:10.664Z,1001.39
2023-03-27T11:15:10.546Z,1001.63
2023-03-27T11:16:10.509Z,1001.52
2023-03-27T11:17:10.542Z,1001.61
2023-03-27T11:18:10.560Z,1001.62
2023-03-27T11:19:10.536Z,1001.71
2023-03-27T11:20:10.477Z,1001.85
2023-03-27T11:21:10.458Z,1001.77
2023-03-27T11:22:10.447Z,1001.71
2023-03-27T11:23:10.466Z,1001.71
2023-03-27T11:24:11.442Z,1001.65
2023-03-27T11:25:10.433Z,1001.63
2023-03-27T11:26:10.412Z,1001.62
2023-03-27T11:27:11.410Z,1001.55
2023-03-27T11:28:10.418Z,1001.59
2023-03-27T11:29:11.369Z,1001.54
2023-03-27T11:30:11.392Z,1001.62
2023-03-27T11:31:12.205Z,1001.57
2023-03-27T11:32:10.403Z,1001.61
2023-03-27T11:33:10.375Z,1001.56
2023-03-27T11:34:10.329Z,1001.53
2023-03-27T11:35:10.336Z,1001.56
2023-03-27T11:36:11.326Z,1001.58
2023-03-27T11:37:11.294Z,1001.54
2023-03-27T11:38:10.307Z,1001.59
2023-03-27T11:39:10.312Z,1001.57
2023-03-27T11:40:10.262Z,1001.59
2023-03-27T11:41:10.259Z,1001.52
2023-03-27T11:42:10.232Z,1001.60
2023-03-27T11:43:11.215Z,1001.60
2023-03-27T11:44:10.259Z,1001.60
2023-03-27T11:45:10.224Z,1001.58
2023-03-27T11:46:10.221Z,1001.53
2023-03-27T11:47:10.181Z,1001.52
2023-03-27T11:48:11.215Z,1001.57
2023-03-27T11:49:10.146Z,1001.49
2023-03-27T11:50:10.171Z,1001.48
2023-03-27T11:51:10.184Z,1001.59
2023-03-27T11:52:10.140Z,1001.61
2023-03-27T11:53:10.134Z,1001.80
2023-03-27T11:54:10.093Z,1001.69
2023-03-27T11:55:10.169Z,1001.74
2023-03-27T11:56:10.127Z,1001.67
2023-03-27T11:57:10.144Z,1001.70
2023-03-27T11:58:10.114Z,1001.72
2023-03-27T11:59:10.041Z,1001.73
2023-03-27T12:00:10.039Z,1001.72
2023-03-27T12:01:10.013Z,1001.72
2023-03-27T12:02:10.080Z,1001.66
2023-03-27T12:03:10.190Z,1001.70
2023-03-27T12:04:10.061Z,1001.69
2023-03-27T12:05:10.983Z,1001.70
2023-03-27T12:06:09.969Z,1001.74
2023-03-27T12:07:12.174Z,1001.69
2023-03-27T12:08:09.983Z,1001.68
2023-03-27T12:09:09.941Z,1001.68
2023-03-27T12:10:10.910Z,1001.63
2023-03-27T12:11:10.920Z,1001.63
2023-03-27T12:12:09.903Z,1001.49
2023-03-27T12:13:09.909Z,1001.60
2023-03-27T12:14:17.754Z,1001.51
2023-03-27T12:15:10.923Z,1001.50
2023-03-27T12:16:09.888Z,1001.42
2023-03-27T12:17:09.898Z,1001.46
2023-03-27T12:18:09.904Z,1001.50
2023-03-27T12:19:21.128Z,1001.54
2023-03-27T12:20:10.843Z,1001.46